createdAt,value
2023-09-27T00:01:14.898Z,101076.88
2023-09-27T00:03:43.617Z,101072.88
2023-09-27T00:06:10.741Z,101074.09
2023-09-27T00:08:37.581Z,101074.19
2023-09-27T00:11:04.943Z,101072.97
2023-09-27T00:13:31.934Z,101074.00
2023-09-27T00:15:58.889Z,101070.19
2023-09-27T00:18:25.959Z,101065.00
2023-09-27T00:20:53.362Z,101081.25
2023-09-27T00:23:20.242Z,101071.41
2023-09-27T00:25:47.045Z,101074.44
2023-09-27T00:28:13.767Z,101076.28
2023-09-27T00:30:40.721Z,101071.41
2023-09-27T00:33:08.428Z,101070.91
2023-09-27T00:35:35.475Z,101071.78
2023-09-27T00:38:03.394Z,101063.44
2023-09-27T00:40:30.963Z,101072.00
2023-09-27T00:42:58.508Z,101067.97
2023-09-27T00:45:25.468Z,101059.75
2023-09-27T00:47:53.965Z,101061.13
2023-09-27T00:50:21.133Z,101062.84
2023-09-27T00:52:49.554Z,101061.34
2023-09-27T00:55:21.150Z,101064.59
2023-09-27T00:57:50.544Z,101068.97
2023-09-27T01:00:19.158Z,101056.28
2023-09-27T01:02:46.220Z,101063.84
2023-09-27T01:05:14.128Z,101075.41
2023-09-27T01:07:41.700Z,101058.06
2023-09-27T01:10:09.733Z,101065.09
2023-09-27T01:12:38.872Z,101066.75
2023-09-27T01:15:07.828Z,101060.19
2023-09-27T01:17:36.543Z,101052.88
2023-09-27T01:20:04.381Z,101062.09
2023-09-27T01:22:31.134Z,101048.75
2023-09-27T01:24:59.151Z,101052.16
2023-09-27T01:27:26.132Z,101055.84
2023-09-27T01:29:52.921Z,101051.84
2023-09-27T01:32:20.467Z,101051.34
2023-09-27T01:34:47.326Z,101050.69
2023-09-27T01:37:14.323Z,101060.03
2023-09-27T01:39:41.263Z,101048.66
2023-09-27T01:42:09.824Z,101046.31
2023-09-27T01:44:36.611Z,101048.25
2023-09-27T01:47:03.532Z,101053.72
2023-09-27T01:49:30.333Z,101045.63
2023-09-27T01:51:57.131Z,101061.09
2023-09-27T01:54:23.916Z,101045.97
2023-09-27T01:56:50.836Z,101053.63
2023-09-27T01:59:17.655Z,101040.97
2023-09-27T02:01:44.546Z,101048.66
2023-09-27T02:04:11.435Z,101051.09
2023-09-27T02:06:38.296Z,101053.25
2023-09-27T02:09:05.377Z,101049.00
2023-09-27T02:11:32.423Z,101048.28
2023-09-27T02:13:59.522Z,101043.75
2023-09-27T02:16:26.553Z,101044.22
2023-09-27T02:18:58.066Z,101042.38
2023-09-27T02:21:24.919Z,101038.97
2023-09-27T02:23:52.073Z,101045.97
2023-09-27T02:26:18.886Z,101047.22
2023-09-27T02:28:45.792Z,101045.06
2023-09-27T02:31:13.827Z,101040.25
2023-09-27T02:33:40.800Z,101045.81
2023-09-27T02:36:07.794Z,101049.00
2023-09-27T02:38:37.414Z,101051.53
2023-09-27T02:41:05.352Z,101048.06
2023-09-27T02:43:32.452Z,101046.88
2023-09-27T02:45:59.661Z,101037.19
2023-09-27T02:48:26.732Z,101046.72
2023-09-27T02:50:53.899Z,101041.69
2023-09-27T02:53:21.232Z,101045.28
2023-09-27T02:55:48.752Z,101037.47
2023-09-27T02:58:16.762Z,101037.00
2023-09-27T03:00:43.967Z,101034.97
2023-09-27T03:03:11.208Z,101042.06
2023-09-27T03:05:38.533Z,101046.88
2023-09-27T03:08:06.049Z,101054.25
2023-09-27T03:10:32.972Z,101052.25
2023-09-27T03:13:00.203Z,101043.47
2023-09-27T03:15:27.373Z,101047.84
2023-09-27T03:17:55.223Z,101048.97
2023-09-27T03:20:23.153Z,101041.94
2023-09-27T03:22:50.551Z,101051.59
2023-09-27T03:25:20.744Z,101051.41
2023-09-27T03:27:48.257Z,101048.72
2023-09-27T03:30:17.547Z,101049.72
2023-09-27T03:32:44.857Z,101048.25
2023-09-27T03:35:11.797Z,101045.72
2023-09-27T03:37:39.014Z,101049.44
2023-09-27T03:40:15.046Z,101049.25
2023-09-27T03:42:46.801Z,101046.59
2023-09-27T03:45:17.155Z,101057.63
2023-09-27T03:47:46.789Z,101054.75
2023-09-27T03:50:18.242Z,101056.41
2023-09-27T03:52:45.340Z,101060.94
2023-09-27T03:55:13.157Z,101048.84
2023-09-27T03:57:43.083Z,101055.50
2023-09-27T04:00:18.369Z,101050.59
2023-09-27T04:02:48.248Z,101049.78
2023-09-27T04:05:16.566Z,101048.59
2023-09-27T04:07:43.618Z,101049.41
2023-09-27T04:10:11.102Z,101054.13
2023-09-27T04:12:38.705Z,101052.28
2023-09-27T04:15:15.169Z,101057.94
2023-09-27T04:17:42.198Z,101061.47
2023-09-27T04:20:20.118Z,101061.28
2023-09-27T04:22:48.880Z,101057.59
2023-09-27T04:25:16.772Z,101067.97
2023-09-27T04:27:47.151Z,101066.94
2023-09-27T04:30:15.488Z,101076.13
2023-09-27T04:32:47.005Z,101071.75
2023-09-27T04:35:14.810Z,101071.59
2023-09-27T04:37:42.642Z,101072.44
2023-09-27T04:40:12.772Z,101078.25
2023-09-27T04:42:43.490Z,101078.91
2023-09-27T04:45:12.323Z,101083.06
2023-09-27T04:47:40.990Z,101075.22
2023-09-27T04:50:11.808Z,101081.88
2023-09-27T04:52:39.890Z,101089.84
2023-09-27T04:55:08.536Z,101089.75
2023-09-27T04:57:35.995Z,101090.94
2023-09-27T05:00:05.259Z,101095.22
2023-09-27T05:02:32.324Z,101093.38
2023-09-27T05:04:59.448Z,101095.50
2023-09-27T05:07:26.311Z,101094.09
2023-09-27T05:09:53.214Z,101101.44
2023-09-27T05:12:19.988Z,101105.78
2023-09-27T05:14:46.659Z,101103.94
2023-09-27T05:17:13.591Z,101101.53
2023-09-27T05:19:40.446Z,101098.00
2023-09-27T05:22:07.247Z,101101.44
2023-09-27T05:24:39.874Z,101107.66
2023-09-27T05:27:08.640Z,101114.59
2023-09-27T05:29:35.964Z,101108.41
2023-09-27T05:32:03.608Z,101111.72
2023-09-27T05:34:32.341Z,101116.47
2023-09-27T05:36:59.219Z,101123.56
2023-09-27T05:39:26.330Z,101113.78
2023-09-27T05:41:53.169Z,101113.84
2023-09-27T05:44:20.050Z,101119.66
2023-09-27T05:46:47.205Z,101118.75
2023-09-27T05:49:16.216Z,101119.25
2023-09-27T05:51:43.380Z,101131.56
2023-09-27T05:54:10.405Z,101134.63
2023-09-27T05:56:40.170Z,101137.66
2023-09-27T05:59:09.843Z,101143.31
2023-09-27T06:01:36.576Z,101142.38
2023-09-27T06:04:04.302Z,101140.38
2023-09-27T06:06:31.271Z,101139.06
2023-09-27T06:08:58.241Z,101137.81
2023-09-27T06:11:25.204Z,101139.47
2023-09-27T06:13:52.102Z,101136.59
2023-09-27T06:16:18.893Z,101135.56
2023-09-27T06:21:13.319Z,101136.56
2023-09-27T06:23:41.036Z,101141.03
2023-09-27T06:26:08.733Z,101140.25
2023-09-27T06:28:39.141Z,101145.25
2023-09-27T06:31:09.137Z,101149.84
2023-09-27T06:33:40.552Z,101157.75
2023-09-27T06:36:12.007Z,101160.72
2023-09-27T06:38:39.326Z,101168.19
2023-09-27T06:41:06.407Z,101163.66
2023-09-27T06:43:33.437Z,101174.28
2023-09-27T06:46:02.744Z,101181.75
2023-09-27T06:48:30.359Z,101175.22
2023-09-27T06:50:57.426Z,101175.88
2023-09-27T06:53:27.452Z,101174.44
2023-09-27T06:55:56.890Z,101171.34
2023-09-27T06:58:26.578Z,101176.53
2023-09-27T07:00:53.629Z,101179.09
2023-09-27T07:03:26.420Z,101178.91
2023-09-27T07:05:53.893Z,101186.81
2023-09-27T07:08:21.844Z,101187.06
2023-09-27T07:10:48.724Z,101184.38
2023-09-27T07:13:16.287Z,101178.00
2023-09-27T07:15:47.267Z,101179.88
2023-09-27T07:18:14.978Z,101179.28
2023-09-27T07:20:43.276Z,101181.34
2023-09-27T07:23:16.187Z,101177.44
2023-09-27T07:25:44.413Z,101184.72
2023-09-27T07:28:12.049Z,101180.38
2023-09-27T07:30:39.046Z,101183.72
2023-09-27T07:33:12.680Z,101192.03
2023-09-27T07:35:44.375Z,101188.50
2023-09-27T07:38:15.374Z,101195.34
2023-09-27T07:40:46.880Z,101197.25
2023-09-27T07:43:13.684Z,101195.41
2023-09-27T07:45:43.444Z,101197.69
2023-09-27T07:48:10.778Z,101193.56
2023-09-27T07:50:39.489Z,101201.00
2023-09-27T07:53:08.114Z,101196.88
2023-09-27T07:55:47.744Z,101198.47
2023-09-27T07:58:15.107Z,101206.97
2023-09-27T08:00:42.147Z,101204.50
2023-09-27T08:03:09.528Z,101204.31
2023-09-27T08:05:44.851Z,101204.16
2023-09-27T08:08:12.962Z,101207.47
2023-09-27T08:10:46.845Z,101209.16
2023-09-27T08:13:15.078Z,101214.56
2023-09-27T08:15:42.938Z,101211.47
2023-09-27T08:18:09.812Z,101219.56
2023-09-27T08:20:36.735Z,101226.19
2023-09-27T08:23:04.310Z,101219.75
2023-09-27T08:25:31.608Z,101221.41
2023-09-27T08:27:58.433Z,101217.28
2023-09-27T08:30:25.308Z,101213.53
2023-09-27T08:32:52.907Z,101223.50
2023-09-27T08:35:20.154Z,101223.31
2023-09-27T08:37:47.264Z,101219.97
2023-09-27T08:40:14.817Z,101229.13
2023-09-27T08:42:43.521Z,101227.25
2023-09-27T08:45:16.178Z,101218.34
2023-09-27T08:47:45.827Z,101214.56
2023-09-27T08:50:16.256Z,101219.59
2023-09-27T08:52:46.724Z,101216.03
2023-09-27T08:55:16.917Z,101223.28
2023-09-27T08:57:52.456Z,101236.19
2023-09-27T09:00:27.981Z,101223.28
2023-09-27T09:03:00.223Z,101221.63
2023-09-27T09:05:30.176Z,101227.06
2023-09-27T09:07:58.893Z,101221.25
2023-09-27T09:10:25.893Z,101223.75
2023-09-27T09:12:53.350Z,101223.72
2023-09-27T09:15:41.530Z,101219.34
2023-09-27T09:18:16.459Z,101220.41
2023-09-27T09:20:52.721Z,101219.16
2023-09-27T09:23:34.894Z,101213.53
2023-09-27T09:26:07.516Z,101218.50
2023-09-27T09:28:36.804Z,101218.50
2023-09-27T09:31:03.731Z,101220.59
2023-09-27T09:33:31.473Z,101223.25
2023-09-27T09:35:58.484Z,101217.47
2023-09-27T09:38:34.718Z,101215.16
2023-09-27T09:41:03.269Z,101222.00
2023-09-27T09:43:35.112Z,101221.56
2023-09-27T09:46:05.753Z,101217.84
2023-09-27T09:48:37.082Z,101217.81
2023-09-27T09:51:08.606Z,101213.44
2023-09-27T09:53:43.031Z,101216.75
2023-09-27T09:58:48.991Z,101212.13
2023-09-27T10:01:22.870Z,101207.72
2023-09-27T10:03:53.147Z,101211.66
2023-09-27T10:06:29.699Z,101211.84
2023-09-27T10:09:15.830Z,101212.03
2023-09-27T10:11:46.835Z,101212.41
2023-09-27T10:14:17.051Z,101204.06
2023-09-27T10:16:44.734Z,101205.47
2023-09-27T10:19:11.916Z,101203.72
2023-09-27T10:22:05.410Z,101206.25
2023-09-27T10:24:42.448Z,101206.59
2023-09-27T10:27:09.230Z,101195.84
2023-09-27T10:29:57.994Z,101200.25
2023-09-27T10:32:25.123Z,101194.69
2023-09-27T10:34:53.041Z,101194.31
2023-09-27T10:37:58.544Z,101190.63
2023-09-27T10:40:26.409Z,101191.06
2023-09-27T10:42:54.056Z,101186.25
2023-09-27T10:45:20.904Z,101190.75
2023-09-27T10:47:50.994Z,101174.66
2023-09-27T10:50:30.222Z,101175.66
2023-09-27T10:52:58.422Z,101169.00
2023-09-27T10:55:25.181Z,101168.34
2023-09-27T10:57:52.244Z,101167.94
2023-09-27T11:00:22.517Z,101164.47
2023-09-27T11:02:49.617Z,101161.13
2023-09-27T11:05:24.754Z,101165.03
2023-09-27T11:07:52.262Z,101150.03
2023-09-27T11:10:39.597Z,101154.94
2023-09-27T11:13:14.177Z,101144.34
2023-09-27T11:15:42.728Z,101152.00
2023-09-27T11:18:11.625Z,101153.66
2023-09-27T11:20:41.290Z,101136.88
2023-09-27T11:23:08.569Z,101140.66
2023-09-27T11:25:43.705Z,101135.94
2023-09-27T11:28:16.329Z,101134.88
2023-09-27T11:30:43.972Z,101124.81
2023-09-27T11:33:14.594Z,101126.03
2023-09-27T11:35:48.778Z,101127.28
2023-09-27T11:38:15.539Z,101122.19
2023-09-27T11:40:44.476Z,101118.63
2023-09-27T11:43:13.748Z,101116.81
2023-09-27T11:45:50.638Z,101109.97
2023-09-27T11:48:31.572Z,101108.91
2023-09-27T11:50:59.806Z,101107.97
2023-09-27T11:53:26.719Z,101105.09
2023-09-27T11:55:55.573Z,101104.38
2023-09-27T11:58:23.980Z,101106.53
2023-09-27T12:00:50.994Z,101101.88
2023-09-27T12:03:18.039Z,101095.69
2023-09-27T12:05:46.151Z,101095.34
2023-09-27T12:08:13.222Z,101096.06
2023-09-27T12:10:40.302Z,101093.78
2023-09-27T12:13:07.240Z,101091.97
2023-09-27T12:15:34.301Z,101088.06
2023-09-27T12:18:01.158Z,101084.59
2023-09-27T12:20:39.697Z,101077.66
2023-09-27T12:23:10.830Z,101082.63
2023-09-27T12:25:38.612Z,101077.22
2023-09-27T12:28:05.987Z,101074.09
2023-09-27T12:30:32.824Z,101080.81
2023-09-27T12:32:59.944Z,101075.63
2023-09-27T12:35:27.528Z,101070.13
2023-09-27T12:37:54.601Z,101069.22
2023-09-27T12:40:21.280Z,101063.31
2023-09-27T12:42:47.995Z,101066.22
2023-09-27T12:45:14.973Z,101065.75
2023-09-27T12:47:42.937Z,101054.56
2023-09-27T12:50:10.100Z,101056.09
2023-09-27T12:52:36.931Z,101052.78
2023-09-27T12:55:06.395Z,101057.06
2023-09-27T12:57:33.356Z,101044.69
2023-09-27T13:00:00.331Z,101040.88
2023-09-27T13:02:28.253Z,101033.78
2023-09-27T13:04:55.310Z,101038.63
2023-09-27T13:07:22.061Z,101038.41
2023-09-27T13:09:50.127Z,101037.53
2023-09-27T13:12:17.089Z,101038.25
2023-09-27T13:14:44.012Z,101038.25
2023-09-27T13:17:11.316Z,101024.94
2023-09-27T13:19:38.334Z,101031.06
2023-09-27T13:22:05.154Z,101034.41
2023-09-27T13:24:32.756Z,101034.50
2023-09-27T13:27:00.250Z,101031.53
2023-09-27T13:29:27.374Z,101032.00
2023-09-27T13:31:54.192Z,101031.25
2023-09-27T13:34:21.120Z,101021.69
2023-09-27T13:36:48.006Z,101027.69
2023-09-27T13:39:26.309Z,101022.03
2023-09-27T13:41:53.290Z,101016.75
2023-09-27T13:44:20.194Z,101007.53
2023-09-27T13:46:47.240Z,101012.28
2023-09-27T13:49:13.991Z,101008.38
2023-09-27T13:51:41.433Z,101000.34
2023-09-27T13:54:09.156Z,101004.56
2023-09-27T13:56:38.021Z,101007.16
2023-09-27T13:59:06.896Z,100997.72
2023-09-27T14:01:33.877Z,101003.66
2023-09-27T14:04:02.375Z,101007.56
2023-09-27T14:06:29.649Z,101001.66
2023-09-27T14:08:56.773Z,100999.19
2023-09-27T14:11:24.065Z,100992.91
2023-09-27T14:13:50.921Z,100989.75
2023-09-27T14:16:18.091Z,100987.03
2023-09-27T14:18:45.702Z,100986.81
2023-09-27T14:21:14.586Z,100985.47
2023-09-27T14:23:43.746Z,100980.19
2023-09-27T14:26:12.657Z,100972.63
2023-09-27T14:28:40.153Z,100969.53
2023-09-27T14:31:07.135Z,100976.59
2023-09-27T14:33:35.081Z,100963.31
2023-09-27T14:36:05.454Z,100966.03
2023-09-27T14:38:36.325Z,100966.53
2023-09-27T14:41:12.291Z,100966.88
2023-09-27T14:43:39.691Z,100963.06
2023-09-27T14:46:11.709Z,100961.06
2023-09-27T14:48:39.726Z,100963.41
2023-09-27T14:51:06.953Z,100970.25
2023-09-27T14:53:33.721Z,100961.03
2023-09-27T14:56:07.805Z,100965.34
2023-09-27T14:58:35.475Z,100967.47
2023-09-27T15:01:05.569Z,100958.72
2023-09-27T15:03:33.461Z,100956.84
2023-09-27T15:06:04.376Z,100959.19
2023-09-27T15:08:31.733Z,100952.00
2023-09-27T15:10:58.671Z,100952.09
2023-09-27T15:13:25.672Z,100950.53
2023-09-27T15:15:52.458Z,100956.06
2023-09-27T15:18:21.941Z,100956.97
2023-09-27T15:20:50.668Z,100949.66
2023-09-27T15:23:17.480Z,100949.44
2023-09-27T15:25:44.476Z,100954.47
2023-09-27T15:28:11.217Z,100946.91
2023-09-27T15:30:38.115Z,100941.81
2023-09-27T15:33:05.196Z,100937.31
2023-09-27T15:35:31.940Z,100938.22
2023-09-27T15:37:59.673Z,100934.28
2023-09-27T15:40:26.536Z,100933.06
2023-09-27T15:42:55.962Z,100928.81
2023-09-27T15:47:50.080Z,100932.84
2023-09-27T15:50:17.215Z,100937.53
2023-09-27T15:52:44.086Z,100934.66
2023-09-27T15:55:12.050Z,100935.34
2023-09-27T15:57:39.224Z,100940.38
2023-09-27T16:00:12.554Z,100938.81
2023-09-27T16:02:40.119Z,100939.47
2023-09-27T16:05:12.045Z,100942.84
2023-09-27T16:07:40.436Z,100936.69
2023-09-27T16:10:10.103Z,100936.09
2023-09-27T16:12:37.813Z,100936.69
2023-09-27T16:15:09.062Z,100931.19
2023-09-27T16:17:38.343Z,100943.06
2023-09-27T16:20:08.152Z,100940.06
2023-09-27T16:22:35.136Z,100932.84
2023-09-27T16:25:04.982Z,100935.63
2023-09-27T16:27:31.932Z,100930.28
2023-09-27T16:29:58.760Z,100929.09
2023-09-27T16:32:26.165Z,100924.78
2023-09-27T16:34:53.017Z,100932.09
2023-09-27T16:37:19.777Z,100936.53
2023-09-27T16:39:46.773Z,100927.00
2023-09-27T16:42:13.567Z,100926.84
2023-09-27T16:44:40.249Z,100936.03
2023-09-27T16:47:07.377Z,100927.56
2023-09-27T16:49:34.528Z,100928.66
2023-09-27T16:52:02.202Z,100926.78
2023-09-27T16:54:28.982Z,100924.75
2023-09-27T16:56:55.783Z,100941.00
2023-09-27T16:59:22.429Z,100929.41
2023-09-27T17:01:49.353Z,100940.78
2023-09-27T17:04:16.089Z,100931.06
2023-09-27T17:06:45.723Z,100927.75
2023-09-27T17:09:12.523Z,100928.59
2023-09-27T17:11:39.349Z,100932.94
2023-09-27T17:14:06.118Z,100934.19
2023-09-27T17:16:33.082Z,100927.56
2023-09-27T17:19:02.040Z,100933.16
2023-09-27T17:21:28.781Z,100930.44
2023-09-27T17:23:56.317Z,100936.00
2023-09-27T17:26:23.350Z,100933.66
2023-09-27T17:28:51.421Z,100939.41
2023-09-27T17:31:18.921Z,100936.66
2023-09-27T17:33:45.985Z,100936.00
2023-09-27T17:36:14.987Z,100943.28
2023-09-27T17:38:41.983Z,100943.22
2023-09-27T17:41:08.941Z,100943.19
2023-09-27T17:43:35.817Z,100944.81
2023-09-27T17:46:02.793Z,100938.72
2023-09-27T17:48:29.750Z,100942.63
2023-09-27T17:50:56.626Z,100948.41
2023-09-27T17:53:23.439Z,100940.69
2023-09-27T17:55:50.211Z,100943.41
2023-09-27T17:58:17.016Z,100945.03
2023-09-27T18:00:44.870Z,100945.84
2023-09-27T18:03:11.789Z,100943.38
2023-09-27T18:05:38.652Z,100940.22
2023-09-27T18:08:06.582Z,100936.59
2023-09-27T18:10:33.392Z,100932.56
2023-09-27T18:13:00.178Z,100928.41
2023-09-27T18:15:28.657Z,100926.53
2023-09-27T18:17:56.144Z,100929.56
2023-09-27T18:20:23.670Z,100931.91
2023-09-27T18:22:50.874Z,100934.31
2023-09-27T18:25:17.817Z,100930.56
2023-09-27T18:27:45.030Z,100931.53
2023-09-27T18:30:12.182Z,100925.25
2023-09-27T18:32:39.105Z,100926.63
2023-09-27T18:35:06.545Z,100933.41
2023-09-27T18:37:34.224Z,100938.50
2023-09-27T18:40:01.114Z,100928.53
2023-09-27T18:42:28.226Z,100933.66
2023-09-27T18:44:55.242Z,100932.81
2023-09-27T18:47:22.373Z,100938.63
2023-09-27T18:49:49.560Z,100944.19
2023-09-27T18:52:16.355Z,100941.69
2023-09-27T18:54:43.161Z,100938.50
2023-09-27T18:57:09.993Z,100940.72
2023-09-27T18:59:36.834Z,100945.50
2023-09-27T19:02:03.783Z,100941.72
2023-09-27T19:04:30.768Z,100937.69
2023-09-27T19:06:58.134Z,100939.09
2023-09-27T19:09:24.989Z,100939.72
2023-09-27T19:11:54.298Z,100940.47
2023-09-27T19:14:21.302Z,100939.81
2023-09-27T19:16:48.168Z,100941.00
2023-09-27T19:19:15.651Z,100935.31
2023-09-27T19:21:42.393Z,100940.94
2023-09-27T19:24:11.005Z,100938.44
2023-09-27T19:26:39.009Z,100939.66
2023-09-27T19:29:05.781Z,100941.41
2023-09-27T19:31:32.757Z,100940.28
2023-09-27T19:33:59.805Z,100946.50
2023-09-27T19:36:26.737Z,100945.59
2023-09-27T19:38:53.556Z,100944.91
2023-09-27T19:41:20.850Z,100944.91
2023-09-27T19:43:47.845Z,100946.59
2023-09-27T19:46:19.958Z,100944.91
2023-09-27T19:48:47.226Z,100941.94
2023-09-27T19:51:24.635Z,100949.66
2023-09-27T19:53:53.036Z,100944.28
2023-09-27T19:56:20.469Z,100939.84
2023-09-27T19:58:47.615Z,100948.03
2023-09-27T20:01:32.849Z,100941.69
2023-09-27T20:04:00.119Z,100954.16
2023-09-27T20:06:28.664Z,100947.50
2023-09-27T20:08:55.605Z,100943.34
2023-09-27T20:11:22.323Z,100940.47
2023-09-27T20:13:49.975Z,100955.47
2023-09-27T20:16:16.798Z,100946.56
2023-09-27T20:18:43.564Z,100951.75
2023-09-27T20:21:10.552Z,100942.22
2023-09-27T20:23:39.215Z,100948.63
2023-09-27T20:26:06.548Z,100942.78
2023-09-27T20:28:33.552Z,100947.13
2023-09-27T20:31:00.372Z,100941.41
2023-09-27T20:33:27.304Z,100944.28
2023-09-27T20:35:54.603Z,100943.50
2023-09-27T20:38:21.420Z,100947.28
2023-09-27T20:40:48.327Z,100936.56
2023-09-27T20:43:15.066Z,100936.41
2023-09-27T20:45:41.913Z,100946.75
2023-09-27T20:48:08.654Z,100934.63
2023-09-27T20:50:35.429Z,100938.41
2023-09-27T20:53:02.174Z,100939.88
2023-09-27T20:55:29.252Z,100931.84
2023-09-27T20:57:56.138Z,100929.50
2023-09-27T21:00:23.801Z,100925.53
2023-09-27T21:02:50.665Z,100929.88
2023-09-27T21:05:17.561Z,100935.91
2023-09-27T21:07:44.507Z,100932.03
2023-09-27T21:10:11.274Z,100927.22
2023-09-27T21:12:38.108Z,100941.28
2023-09-27T21:15:05.620Z,100932.56
2023-09-27T21:17:32.368Z,100939.09
2023-09-27T21:19:59.330Z,100939.09
2023-09-27T21:22:26.073Z,100946.94
2023-09-27T21:24:52.967Z,100938.63
2023-09-27T21:27:19.862Z,100940.19
2023-09-27T21:29:46.911Z,100938.38
2023-09-27T21:32:14.423Z,100943.25
2023-09-27T21:34:41.842Z,100943.06
2023-09-27T21:37:08.792Z,100937.69
2023-09-27T21:39:36.582Z,100944.28
2023-09-27T21:42:03.527Z,100939.09
2023-09-27T21:44:31.371Z,100939.47
2023-09-27T21:46:58.193Z,100941.06
2023-09-27T21:49:25.861Z,100941.81
2023-09-27T21:51:52.774Z,100937.91
2023-09-27T21:54:19.957Z,100932.16
2023-09-27T21:56:46.864Z,100935.25
2023-09-27T21:59:13.852Z,100933.50
2023-09-27T22:01:40.781Z,100932.56
2023-09-27T22:04:07.727Z,100937.47
2023-09-27T22:06:35.221Z,100941.00
2023-09-27T22:09:05.323Z,100934.56
2023-09-27T22:11:32.548Z,100928.38
2023-09-27T22:14:05.881Z,100932.56
2023-09-27T22:16:34.166Z,100937.38
2023-09-27T22:19:12.719Z,100931.00
2023-09-27T22:21:44.069Z,100926.97
2023-09-27T22:24:14.796Z,100928.03
2023-09-27T22:26:46.844Z,100925.00
2023-09-27T22:29:15.447Z,100919.16
2023-09-27T22:31:43.715Z,100917.16
2023-09-27T22:34:12.128Z,100918.53
2023-09-27T22:36:47.597Z,100916.78
2023-09-27T22:39:17.978Z,100921.97
2023-09-27T22:41:46.706Z,100920.53
2023-09-27T22:44:24.067Z,100915.06
2023-09-27T22:46:53.441Z,100922.91
2023-09-27T22:49:22.705Z,100923.22
2023-09-27T22:51:50.338Z,100920.72
2023-09-27T22:54:21.860Z,100923.81
2023-09-27T22:56:50.074Z,100924.84
2023-09-27T22:59:18.304Z,100921.53
2023-09-27T23:01:47.530Z,100912.66
2023-09-27T23:04:17.213Z,100917.63
2023-09-27T23:06:46.265Z,100916.59
2023-09-27T23:09:25.782Z,100915.06
2023-09-27T23:12:12.824Z,100918.22
2023-09-27T23:14:59.739Z,100916.72
2023-09-27T23:17:31.294Z,100909.06
2023-09-27T23:19:58.186Z,100911.59
2023-09-27T23:22:27.730Z,100905.81
2023-09-27T23:25:14.994Z,100911.31
2023-09-27T23:27:42.432Z,100911.88
2023-09-27T23:30:14.319Z,100908.44
2023-09-27T23:32:41.383Z,100907.75
2023-09-27T23:35:10.785Z,100905.25
2023-09-27T23:37:38.205Z,100907.81
2023-09-27T23:40:14.830Z,100908.81
2023-09-27T23:42:48.214Z,100903.47
2023-09-27T23:45:15.692Z,100906.31
2023-09-27T23:47:50.862Z,100906.78
2023-09-27T23:50:18.461Z,100911.53
2023-09-27T23:52:47.666Z,100914.09
2023-09-27T23:55:18.569Z,100917.97
2023-09-27T23:57:49.295Z,100915.78
